Airfield :
LOGIN :

Register | Disclaimer

   EN    FR    IT 

 










Legend :    VFR   Marginal VFR   IFR   Intensive IFR   Very Intensive IFR
Visi :
Ceiling :
>= 8 km
>= 3000ft
5 to 8 km
1000 to 3000 ft
1500m to 5 km
500 to 1000 ft
800 to 1500m
200 to 500 ft
< 800m
< 200 ft
Symbols :   Thunderstorms  Fog  Heavy snow  Heavy precipitations  Wind > 20 kt
SIGMETs :     Misc.  Thunderstorms  Icing  Turbulence  Mountain Waves  Volcanic Ashes






- Airport Elevation : 1649 ft
- IATA code : HHN


EDFH - Frankfurt-Hahn Rhineland-Palatinate

CURRENT METAR :
  • 211220Z 21027G40KT 180V240 CAVOK 19/07 Q1007

EXPIRED METARs :
  • 211150Z 21021G33KT 180V240 CAVOK 18/07 Q1007
  • 211120Z 21019KT CAVOK 19/07 Q1007
  • 211050Z 20017G27KT 160V220 CAVOK 17/06 Q1007
  • 211020Z 19014G24KT CAVOK 16/05 Q1007
  • 210950Z 21013G23KT 160V250 CAVOK 16/05 Q1007

TAF TAF EDFH
Valid from the 21 at 12:00 until the 22 at 12:00 UTC


211100Z 2112/2212 21015G30KT CAVOK
PROB30
TEMPO 2112/2117 21020G40KT
BECMG 2123/2202 22010KT
PROB30
TEMPO 2206/2212 21015G30KT SHRA BKN010 BKN020TCU



MET'MAP, your aeronautical weather chart ! - Copyright ORBIFLY December 2007 - Disclaimer

ORBIFLY MET'MAP TEAM :

Programming & Development : Alexandra Zaïnal
Concept & original design : Baudouin d'Aumeries
Assistance for programming : Marc-Olivier Méhu
Technical & hardware support : Manuel Goepfert

Contact : metmap@orbifly.com




SOURCES & CREDITS :

   NOAA